sensor_id;sensor_type;location;lat;lon;timestamp;temperature;humidity
12089;DHT22;6107;49.078;8.578;2023-03-09T00:01:28;11.00;99.90
12089;DHT22;6107;49.078;8.578;2023-03-09T00:03:55;11.00;99.90
12089;DHT22;6107;49.078;8.578;2023-03-09T00:08:48;11.00;99.90
12089;DHT22;6107;49.078;8.578;2023-03-09T00:11:14;10.90;99.90
12089;DHT22;6107;49.078;8.578;2023-03-09T00:13:40;10.80;99.90
12089;DHT22;6107;49.078;8.578;2023-03-09T00:16:21;10.70;99.90
12089;DHT22;6107;49.078;8.578;2023-03-09T00:18:46;10.70;99.90
12089;DHT22;6107;49.078;8.578;2023-03-09T00:21:12;10.70;99.90
12089;DHT22;6107;49.078;8.578;2023-03-09T00:23:54;10.70;99.90
12089;DHT22;6107;49.078;8.578;2023-03-09T00:26:20;10.60;99.90
12089;DHT22;6107;49.078;8.578;2023-03-09T00:28:45;10.60;99.90
12089;DHT22;6107;49.078;8.578;2023-03-09T00:31:10;10.50;99.90
12089;DHT22;6107;49.078;8.578;2023-03-09T00:33:36;10.40;99.90
12089;DHT22;6107;49.078;8.578;2023-03-09T00:36:02;10.40;99.90
12089;DHT22;6107;49.078;8.578;2023-03-09T00:38:27;10.40;99.90
12089;DHT22;6107;49.078;8.578;2023-03-09T00:40:53;10.30;99.90
12089;DHT22;6107;49.078;8.578;2023-03-09T00:43:18;10.30;99.90
12089;DHT22;6107;49.078;8.578;2023-03-09T00:45:44;10.40;99.90
12089;DHT22;6107;49.078;8.578;2023-03-09T00:48:09;10.30;99.90
12089;DHT22;6107;49.078;8.578;2023-03-09T00:50:35;10.30;99.90
12089;DHT22;6107;49.078;8.578;2023-03-09T00:53:00;10.30;99.90
12089;DHT22;6107;49.078;8.578;2023-03-09T00:55:26;10.40;99.90
12089;DHT22;6107;49.078;8.578;2023-03-09T00:57:51;10.40;99.90
12089;DHT22;6107;49.078;8.578;2023-03-09T01:00:17;10.40;99.90
12089;DHT22;6107;49.078;8.578;2023-03-09T01:02:43;10.50;99.90
12089;DHT22;6107;49.078;8.578;2023-03-09T01:05:09;10.40;99.90
12089;DHT22;6107;49.078;8.578;2023-03-09T01:07:35;10.40;99.90
12089;DHT22;6107;49.078;8.578;2023-03-09T01:10:02;10.50;99.90
12089;DHT22;6107;49.078;8.578;2023-03-09T01:12:27;10.40;99.90
12089;DHT22;6107;49.078;8.578;2023-03-09T01:14:54;10.40;99.90
12089;DHT22;6107;49.078;8.578;2023-03-09T01:17:19;10.60;99.90
12089;DHT22;6107;49.078;8.578;2023-03-09T01:19:45;10.60;99.90
12089;DHT22;6107;49.078;8.578;2023-03-09T01:22:11;10.60;99.90
12089;DHT22;6107;49.078;8.578;2023-03-09T01:24:36;10.60;99.90
12089;DHT22;6107;49.078;8.578;2023-03-09T01:27:02;10.60;99.90
12089;DHT22;6107;49.078;8.578;2023-03-09T01:29:27;10.70;99.90
12089;DHT22;6107;49.078;8.578;2023-03-09T01:31:53;10.70;99.90
12089;DHT22;6107;49.078;8.578;2023-03-09T01:34:19;10.80;99.90
12089;DHT22;6107;49.078;8.578;2023-03-09T01:36:44;10.80;99.90
12089;DHT22;6107;49.078;8.578;2023-03-09T01:39:10;10.80;99.90
12089;DHT22;6107;49.078;8.578;2023-03-09T01:41:36;10.80;99.90
12089;DHT22;6107;49.078;8.578;2023-03-09T01:44:01;10.80;99.90
12089;DHT22;6107;49.078;8.578;2023-03-09T01:46:30;10.80;99.90
12089;DHT22;6107;49.078;8.578;2023-03-09T01:52:09;10.90;99.90
12089;DHT22;6107;49.078;8.578;2023-03-09T01:57:25;10.80;99.90
12089;DHT22;6107;49.078;8.578;2023-03-09T01:59:53;10.90;99.90
12089;DHT22;6107;49.078;8.578;2023-03-09T02:02:22;11.00;99.90
12089;DHT22;6107;49.078;8.578;2023-03-09T02:04:52;10.90;99.90
12089;DHT22;6107;49.078;8.578;2023-03-09T02:07:20;11.00;99.90
12089;DHT22;6107;49.078;8.578;2023-03-09T02:09:58;11.00;99.90
12089;DHT22;6107;49.078;8.578;2023-03-09T02:12:26;10.90;99.90
12089;DHT22;6107;49.078;8.578;2023-03-09T02:14:52;11.00;99.90
12089;DHT22;6107;49.078;8.578;2023-03-09T02:17:18;11.00;99.90
12089;DHT22;6107;49.078;8.578;2023-03-09T02:20:10;11.00;99.90
12089;DHT22;6107;49.078;8.578;2023-03-09T02:22:38;11.10;99.90
12089;DHT22;6107;49.078;8.578;2023-03-09T02:25:14;11.00;99.90
12089;DHT22;6107;49.078;8.578;2023-03-09T02:27:41;11.00;99.90
12089;DHT22;6107;49.078;8.578;2023-03-09T02:30:08;10.90;99.90
12089;DHT22;6107;49.078;8.578;2023-03-09T02:32:34;10.80;99.90
12089;DHT22;6107;49.078;8.578;2023-03-09T02:34:59;10.60;99.90
12089;DHT22;6107;49.078;8.578;2023-03-09T02:40:01;10.40;99.90
12089;DHT22;6107;49.078;8.578;2023-03-09T02:42:29;10.20;99.90
12089;DHT22;6107;49.078;8.578;2023-03-09T02:44:57;10.10;99.90
12089;DHT22;6107;49.078;8.578;2023-03-09T02:47:23;10.00;99.90
12089;DHT22;6107;49.078;8.578;2023-03-09T02:49:49;9.90;99.90
12089;DHT22;6107;49.078;8.578;2023-03-09T02:52:14;9.90;99.90
12089;DHT22;6107;49.078;8.578;2023-03-09T02:54:40;9.90;99.90
12089;DHT22;6107;49.078;8.578;2023-03-09T02:57:06;9.90;99.90
12089;DHT22;6107;49.078;8.578;2023-03-09T02:59:32;9.90;99.90
12089;DHT22;6107;49.078;8.578;2023-03-09T03:01:58;9.90;99.90
12089;DHT22;6107;49.078;8.578;2023-03-09T03:04:23;9.90;99.90
12089;DHT22;6107;49.078;8.578;2023-03-09T03:06:49;9.90;99.90
12089;DHT22;6107;49.078;8.578;2023-03-09T03:09:14;9.90;99.90
12089;DHT22;6107;49.078;8.578;2023-03-09T03:11:40;9.90;99.90
12089;DHT22;6107;49.078;8.578;2023-03-09T03:14:05;9.90;99.90
12089;DHT22;6107;49.078;8.578;2023-03-09T03:16:33;9.90;99.90
12089;DHT22;6107;49.078;8.578;2023-03-09T03:18:59;9.90;99.90
12089;DHT22;6107;49.078;8.578;2023-03-09T03:21:25;9.80;99.90
12089;DHT22;6107;49.078;8.578;2023-03-09T03:23:51;9.90;99.90
12089;DHT22;6107;49.078;8.578;2023-03-09T03:26:16;9.80;99.90
12089;DHT22;6107;49.078;8.578;2023-03-09T03:28:42;9.80;99.90
12089;DHT22;6107;49.078;8.578;2023-03-09T03:31:08;9.70;99.90
12089;DHT22;6107;49.078;8.578;2023-03-09T03:33:34;9.80;99.90
12089;DHT22;6107;49.078;8.578;2023-03-09T03:36:00;9.80;99.90
12089;DHT22;6107;49.078;8.578;2023-03-09T03:38:25;9.70;99.90
12089;DHT22;6107;49.078;8.578;2023-03-09T03:40:50;9.70;99.90
12089;DHT22;6107;49.078;8.578;2023-03-09T03:43:16;9.70;99.90
12089;DHT22;6107;49.078;8.578;2023-03-09T03:45:41;9.60;99.90
12089;DHT22;6107;49.078;8.578;2023-03-09T03:48:07;9.60;99.90
12089;DHT22;6107;49.078;8.578;2023-03-09T03:50:32;9.70;99.90
12089;DHT22;6107;49.078;8.578;2023-03-09T03:52:58;9.70;99.90
12089;DHT22;6107;49.078;8.578;2023-03-09T03:55:24;9.70;99.90
12089;DHT22;6107;49.078;8.578;2023-03-09T03:57:49;9.70;99.90
12089;DHT22;6107;49.078;8.578;2023-03-09T04:00:15;9.60;99.90
12089;DHT22;6107;49.078;8.578;2023-03-09T04:02:43;9.60;99.90
12089;DHT22;6107;49.078;8.578;2023-03-09T04:05:08;9.60;99.90
12089;DHT22;6107;49.078;8.578;2023-03-09T04:07:34;9.70;99.90
12089;DHT22;6107;49.078;8.578;2023-03-09T04:09:59;9.60;99.90
12089;DHT22;6107;49.078;8.578;2023-03-09T04:12:25;9.60;99.90
12089;DHT22;6107;49.078;8.578;2023-03-09T04:14:50;9.60;99.90
12089;DHT22;6107;49.078;8.578;2023-03-09T04:17:16;9.60;99.90
12089;DHT22;6107;49.078;8.578;2023-03-09T04:19:41;9.60;99.90
12089;DHT22;6107;49.078;8.578;2023-03-09T04:22:08;9.60;99.90
12089;DHT22;6107;49.078;8.578;2023-03-09T04:24:34;9.60;99.90
12089;DHT22;6107;49.078;8.578;2023-03-09T04:26:59;9.60;99.90
12089;DHT22;6107;49.078;8.578;2023-03-09T04:29:25;9.60;99.90
12089;DHT22;6107;49.078;8.578;2023-03-09T04:31:50;9.60;99.90
12089;DHT22;6107;49.078;8.578;2023-03-09T04:34:16;9.50;99.90
12089;DHT22;6107;49.078;8.578;2023-03-09T04:36:42;9.50;99.90
12089;DHT22;6107;49.078;8.578;2023-03-09T04:39:08;9.50;99.90
12089;DHT22;6107;49.078;8.578;2023-03-09T04:41:34;9.50;99.90
12089;DHT22;6107;49.078;8.578;2023-03-09T04:44:00;9.50;99.90
12089;DHT22;6107;49.078;8.578;2023-03-09T04:46:26;9.50;99.90
12089;DHT22;6107;49.078;8.578;2023-03-09T04:48:51;9.50;99.90
12089;DHT22;6107;49.078;8.578;2023-03-09T04:51:17;9.50;99.90
12089;DHT22;6107;49.078;8.578;2023-03-09T04:53:42;9.50;99.90
12089;DHT22;6107;49.078;8.578;2023-03-09T04:56:08;9.50;99.90
12089;DHT22;6107;49.078;8.578;2023-03-09T04:58:33;9.50;99.90
12089;DHT22;6107;49.078;8.578;2023-03-09T05:00:59;9.50;99.90
12089;DHT22;6107;49.078;8.578;2023-03-09T05:03:27;9.40;99.90
12089;DHT22;6107;49.078;8.578;2023-03-09T05:05:52;9.40;99.90
12089;DHT22;6107;49.078;8.578;2023-03-09T05:08:18;9.40;99.90
12089;DHT22;6107;49.078;8.578;2023-03-09T05:10:43;9.30;99.90
12089;DHT22;6107;49.078;8.578;2023-03-09T05:13:09;9.30;99.90
12089;DHT22;6107;49.078;8.578;2023-03-09T05:15:40;9.30;99.90
12089;DHT22;6107;49.078;8.578;2023-03-09T05:18:07;9.30;99.90
12089;DHT22;6107;49.078;8.578;2023-03-09T05:20:32;9.30;99.90
12089;DHT22;6107;49.078;8.578;2023-03-09T05:22:59;9.40;99.90
12089;DHT22;6107;49.078;8.578;2023-03-09T05:25:24;9.50;99.90
12089;DHT22;6107;49.078;8.578;2023-03-09T05:27:50;9.40;99.90
12089;DHT22;6107;49.078;8.578;2023-03-09T05:30:17;9.50;99.90
12089;DHT22;6107;49.078;8.578;2023-03-09T05:32:44;9.50;99.90
12089;DHT22;6107;49.078;8.578;2023-03-09T05:35:10;9.50;99.90
12089;DHT22;6107;49.078;8.578;2023-03-09T05:37:35;9.50;99.90
12089;DHT22;6107;49.078;8.578;2023-03-09T05:40:01;9.60;99.90
12089;DHT22;6107;49.078;8.578;2023-03-09T05:42:26;9.70;99.90
12089;DHT22;6107;49.078;8.578;2023-03-09T05:44:52;9.70;99.90
12089;DHT22;6107;49.078;8.578;2023-03-09T05:47:17;9.70;99.90
12089;DHT22;6107;49.078;8.578;2023-03-09T05:49:43;9.70;99.90
12089;DHT22;6107;49.078;8.578;2023-03-09T05:52:09;9.70;99.90
12089;DHT22;6107;49.078;8.578;2023-03-09T05:54:34;9.70;99.90
12089;DHT22;6107;49.078;8.578;2023-03-09T05:57:00;9.80;99.90
12089;DHT22;6107;49.078;8.578;2023-03-09T05:59:26;9.90;99.90
12089;DHT22;6107;49.078;8.578;2023-03-09T06:01:51;9.90;99.90
12089;DHT22;6107;49.078;8.578;2023-03-09T06:04:17;9.90;99.90
12089;DHT22;6107;49.078;8.578;2023-03-09T06:06:42;9.90;99.90
12089;DHT22;6107;49.078;8.578;2023-03-09T06:09:08;10.00;99.90
12089;DHT22;6107;49.078;8.578;2023-03-09T06:11:33;10.00;99.90
12089;DHT22;6107;49.078;8.578;2023-03-09T06:13:59;10.00;99.90
12089;DHT22;6107;49.078;8.578;2023-03-09T06:16:24;10.00;99.90
12089;DHT22;6107;49.078;8.578;2023-03-09T06:18:53;10.10;99.90
12089;DHT22;6107;49.078;8.578;2023-03-09T06:21:19;10.00;99.90
12089;DHT22;6107;49.078;8.578;2023-03-09T06:23:44;10.10;99.90
12089;DHT22;6107;49.078;8.578;2023-03-09T06:26:11;10.00;99.90
12089;DHT22;6107;49.078;8.578;2023-03-09T06:28:37;10.00;99.90
12089;DHT22;6107;49.078;8.578;2023-03-09T06:31:11;10.10;99.90
12089;DHT22;6107;49.078;8.578;2023-03-09T06:33:38;10.10;99.90
12089;DHT22;6107;49.078;8.578;2023-03-09T06:36:04;10.10;99.90
12089;DHT22;6107;49.078;8.578;2023-03-09T06:38:30;10.10;99.90
12089;DHT22;6107;49.078;8.578;2023-03-09T06:40:56;10.20;99.90
12089;DHT22;6107;49.078;8.578;2023-03-09T06:43:22;10.20;99.90
12089;DHT22;6107;49.078;8.578;2023-03-09T06:45:47;10.30;99.90
12089;DHT22;6107;49.078;8.578;2023-03-09T06:48:14;10.30;99.90
12089;DHT22;6107;49.078;8.578;2023-03-09T06:50:39;10.40;99.90
12089;DHT22;6107;49.078;8.578;2023-03-09T06:53:05;10.30;99.90
12089;DHT22;6107;49.078;8.578;2023-03-09T06:55:30;10.50;99.90
12089;DHT22;6107;49.078;8.578;2023-03-09T06:57:56;10.60;99.90
12089;DHT22;6107;49.078;8.578;2023-03-09T07:00:22;10.60;99.90
12089;DHT22;6107;49.078;8.578;2023-03-09T07:02:47;10.60;99.90
12089;DHT22;6107;49.078;8.578;2023-03-09T07:05:13;10.60;99.90
12089;DHT22;6107;49.078;8.578;2023-03-09T07:07:39;10.60;99.90
12089;DHT22;6107;49.078;8.578;2023-03-09T07:10:07;10.60;99.90
12089;DHT22;6107;49.078;8.578;2023-03-09T07:12:33;10.60;99.90
12089;DHT22;6107;49.078;8.578;2023-03-09T07:14:58;10.60;99.90
12089;DHT22;6107;49.078;8.578;2023-03-09T07:17:24;10.60;99.90
12089;DHT22;6107;49.078;8.578;2023-03-09T07:19:50;10.80;99.90
12089;DHT22;6107;49.078;8.578;2023-03-09T07:22:17;10.70;99.90
12089;DHT22;6107;49.078;8.578;2023-03-09T07:24:43;10.80;99.90
12089;DHT22;6107;49.078;8.578;2023-03-09T07:27:09;10.80;99.90
12089;DHT22;6107;49.078;8.578;2023-03-09T07:29:35;10.80;99.90
12089;DHT22;6107;49.078;8.578;2023-03-09T07:32:01;10.80;99.90
12089;DHT22;6107;49.078;8.578;2023-03-09T07:34:28;10.90;99.90
12089;DHT22;6107;49.078;8.578;2023-03-09T07:36:53;10.90;99.90
12089;DHT22;6107;49.078;8.578;2023-03-09T07:39:19;10.90;99.90
12089;DHT22;6107;49.078;8.578;2023-03-09T07:41:44;10.80;99.90
12089;DHT22;6107;49.078;8.578;2023-03-09T07:44:10;11.00;99.90
12089;DHT22;6107;49.078;8.578;2023-03-09T07:46:36;10.90;99.90
12089;DHT22;6107;49.078;8.578;2023-03-09T07:49:02;10.90;99.90
12089;DHT22;6107;49.078;8.578;2023-03-09T07:51:28;11.00;99.90
12089;DHT22;6107;49.078;8.578;2023-03-09T07:53:55;10.90;99.90
12089;DHT22;6107;49.078;8.578;2023-03-09T07:56:20;11.10;99.90
12089;DHT22;6107;49.078;8.578;2023-03-09T07:58:46;11.10;99.90
12089;DHT22;6107;49.078;8.578;2023-03-09T08:01:14;11.10;99.90
12089;DHT22;6107;49.078;8.578;2023-03-09T08:03:40;11.10;99.90
12089;DHT22;6107;49.078;8.578;2023-03-09T08:06:06;11.10;99.90
12089;DHT22;6107;49.078;8.578;2023-03-09T08:08:32;11.10;99.90
12089;DHT22;6107;49.078;8.578;2023-03-09T08:10:58;11.00;99.90
12089;DHT22;6107;49.078;8.578;2023-03-09T08:13:24;11.00;99.90
12089;DHT22;6107;49.078;8.578;2023-03-09T08:15:51;11.10;99.90
12089;DHT22;6107;49.078;8.578;2023-03-09T08:18:17;11.10;99.90
12089;DHT22;6107;49.078;8.578;2023-03-09T08:20:43;11.10;99.90
12089;DHT22;6107;49.078;8.578;2023-03-09T08:23:09;11.10;99.90
12089;DHT22;6107;49.078;8.578;2023-03-09T08:25:35;11.10;99.90
12089;DHT22;6107;49.078;8.578;2023-03-09T08:28:01;11.10;99.90
12089;DHT22;6107;49.078;8.578;2023-03-09T08:30:27;11.10;99.90
12089;DHT22;6107;49.078;8.578;2023-03-09T08:32:53;11.00;99.90
12089;DHT22;6107;49.078;8.578;2023-03-09T08:35:22;11.00;99.90
12089;DHT22;6107;49.078;8.578;2023-03-09T08:37:48;11.10;99.90
12089;DHT22;6107;49.078;8.578;2023-03-09T08:40:15;11.00;99.90
12089;DHT22;6107;49.078;8.578;2023-03-09T08:42:41;11.00;99.90
12089;DHT22;6107;49.078;8.578;2023-03-09T08:45:08;11.00;99.90
12089;DHT22;6107;49.078;8.578;2023-03-09T08:47:34;11.10;99.90
12089;DHT22;6107;49.078;8.578;2023-03-09T08:50:00;11.00;99.90
12089;DHT22;6107;49.078;8.578;2023-03-09T08:52:25;11.00;99.90
12089;DHT22;6107;49.078;8.578;2023-03-09T08:54:51;11.00;99.90
12089;DHT22;6107;49.078;8.578;2023-03-09T08:57:17;11.10;99.90
12089;DHT22;6107;49.078;8.578;2023-03-09T08:59:43;11.10;99.90
12089;DHT22;6107;49.078;8.578;2023-03-09T09:02:12;11.10;99.90
12089;DHT22;6107;49.078;8.578;2023-03-09T09:04:46;11.10;99.90
12089;DHT22;6107;49.078;8.578;2023-03-09T09:07:13;11.10;99.90
12089;DHT22;6107;49.078;8.578;2023-03-09T09:09:40;11.10;99.90
12089;DHT22;6107;49.078;8.578;2023-03-09T09:12:06;11.10;99.90
12089;DHT22;6107;49.078;8.578;2023-03-09T09:14:33;11.20;99.90
12089;DHT22;6107;49.078;8.578;2023-03-09T09:16:59;11.20;99.90
12089;DHT22;6107;49.078;8.578;2023-03-09T09:19:24;11.20;99.90
12089;DHT22;6107;49.078;8.578;2023-03-09T09:21:50;11.10;99.90
12089;DHT22;6107;49.078;8.578;2023-03-09T09:24:18;11.20;99.90
12089;DHT22;6107;49.078;8.578;2023-03-09T09:26:44;11.20;99.90
12089;DHT22;6107;49.078;8.578;2023-03-09T09:29:10;11.20;99.90
12089;DHT22;6107;49.078;8.578;2023-03-09T09:31:35;11.20;99.90
12089;DHT22;6107;49.078;8.578;2023-03-09T09:34:01;11.20;99.90
12089;DHT22;6107;49.078;8.578;2023-03-09T09:36:27;11.20;99.90
12089;DHT22;6107;49.078;8.578;2023-03-09T09:38:53;11.10;99.90
12089;DHT22;6107;49.078;8.578;2023-03-09T09:41:38;11.10;99.90
12089;DHT22;6107;49.078;8.578;2023-03-09T09:44:06;11.10;99.90
12089;DHT22;6107;49.078;8.578;2023-03-09T09:46:35;11.10;99.90
12089;DHT22;6107;49.078;8.578;2023-03-09T09:49:02;11.10;99.90
12089;DHT22;6107;49.078;8.578;2023-03-09T09:54:49;11.10;99.90
12089;DHT22;6107;49.078;8.578;2023-03-09T09:57:35;11.00;99.90
12089;DHT22;6107;49.078;8.578;2023-03-09T10:00:12;11.10;99.90
12089;DHT22;6107;49.078;8.578;2023-03-09T10:02:41;11.10;99.90
12089;DHT22;6107;49.078;8.578;2023-03-09T10:05:34;11.00;99.90
12089;DHT22;6107;49.078;8.578;2023-03-09T10:11:06;10.90;99.90
12089;DHT22;6107;49.078;8.578;2023-03-09T10:13:41;11.10;99.90
12089;DHT22;6107;49.078;8.578;2023-03-09T10:16:12;11.10;99.90
12089;DHT22;6107;49.078;8.578;2023-03-09T10:18:45;11.20;99.90
12089;DHT22;6107;49.078;8.578;2023-03-09T10:21:26;11.20;99.90
12089;DHT22;6107;49.078;8.578;2023-03-09T10:23:56;11.40;99.90
12089;DHT22;6107;49.078;8.578;2023-03-09T10:26:45;11.70;99.90
12089;DHT22;6107;49.078;8.578;2023-03-09T10:29:29;11.80;99.90
12089;DHT22;6107;49.078;8.578;2023-03-09T10:32:01;11.90;99.90
12089;DHT22;6107;49.078;8.578;2023-03-09T10:34:37;11.80;99.90
12089;DHT22;6107;49.078;8.578;2023-03-09T10:37:13;11.60;99.90
12089;DHT22;6107;49.078;8.578;2023-03-09T10:39:44;11.30;99.90
12089;DHT22;6107;49.078;8.578;2023-03-09T10:42:20;11.30;99.90
12089;DHT22;6107;49.078;8.578;2023-03-09T10:45:13;11.40;99.90
12089;DHT22;6107;49.078;8.578;2023-03-09T10:47:57;11.40;99.90
12089;DHT22;6107;49.078;8.578;2023-03-09T10:50:29;11.60;99.90
12089;DHT22;6107;49.078;8.578;2023-03-09T10:52:55;11.50;99.90
12089;DHT22;6107;49.078;8.578;2023-03-09T10:55:41;11.50;99.90
12089;DHT22;6107;49.078;8.578;2023-03-09T10:58:18;11.40;99.90
12089;DHT22;6107;49.078;8.578;2023-03-09T11:01:03;11.60;99.90
12089;DHT22;6107;49.078;8.578;2023-03-09T11:03:32;11.80;99.90
12089;DHT22;6107;49.078;8.578;2023-03-09T11:06:29;11.90;99.90
12089;DHT22;6107;49.078;8.578;2023-03-09T11:09:14;12.60;99.90
12089;DHT22;6107;49.078;8.578;2023-03-09T11:11:46;13.10;99.90
12089;DHT22;6107;49.078;8.578;2023-03-09T11:14:26;13.10;99.90
12089;DHT22;6107;49.078;8.578;2023-03-09T11:16:56;12.90;99.90
12089;DHT22;6107;49.078;8.578;2023-03-09T11:19:22;13.00;99.90
12089;DHT22;6107;49.078;8.578;2023-03-09T11:21:58;12.90;99.90
12089;DHT22;6107;49.078;8.578;2023-03-09T11:24:29;12.80;99.90
12089;DHT22;6107;49.078;8.578;2023-03-09T11:27:01;12.70;99.90
12089;DHT22;6107;49.078;8.578;2023-03-09T11:29:32;12.60;99.90
12089;DHT22;6107;49.078;8.578;2023-03-09T11:32:01;12.50;99.90
12089;DHT22;6107;49.078;8.578;2023-03-09T11:34:31;12.40;99.90
12089;DHT22;6107;49.078;8.578;2023-03-09T11:37:15;12.50;99.90
12089;DHT22;6107;49.078;8.578;2023-03-09T11:39:58;12.50;99.90
12089;DHT22;6107;49.078;8.578;2023-03-09T11:45:20;12.50;99.90
12089;DHT22;6107;49.078;8.578;2023-03-09T11:47:50;12.50;99.90
12089;DHT22;6107;49.078;8.578;2023-03-09T11:50:21;12.50;99.90
12089;DHT22;6107;49.078;8.578;2023-03-09T11:53:21;12.40;99.90
12089;DHT22;6107;49.078;8.578;2023-03-09T11:55:52;12.30;99.90
12089;DHT22;6107;49.078;8.578;2023-03-09T11:58:30;12.50;99.90
12089;DHT22;6107;49.078;8.578;2023-03-09T12:01:24;12.70;99.90
12089;DHT22;6107;49.078;8.578;2023-03-09T12:04:03;13.00;99.90
12089;DHT22;6107;49.078;8.578;2023-03-09T12:06:37;12.90;99.90
12089;DHT22;6107;49.078;8.578;2023-03-09T12:09:08;12.80;99.90
12089;DHT22;6107;49.078;8.578;2023-03-09T12:11:43;12.60;99.90
12089;DHT22;6107;49.078;8.578;2023-03-09T12:14:19;12.50;99.90
12089;DHT22;6107;49.078;8.578;2023-03-09T12:16:50;12.70;99.90
12089;DHT22;6107;49.078;8.578;2023-03-09T12:19:18;12.70;99.90
12089;DHT22;6107;49.078;8.578;2023-03-09T12:21:49;12.60;99.90
12089;DHT22;6107;49.078;8.578;2023-03-09T12:24:37;12.70;99.90
12089;DHT22;6107;49.078;8.578;2023-03-09T12:27:18;12.90;99.90
12089;DHT22;6107;49.078;8.578;2023-03-09T12:29:50;13.00;99.90
12089;DHT22;6107;49.078;8.578;2023-03-09T12:34:49;12.70;99.90
12089;DHT22;6107;49.078;8.578;2023-03-09T12:42:35;13.00;99.90
12089;DHT22;6107;49.078;8.578;2023-03-09T12:45:29;13.00;99.90
12089;DHT22;6107;49.078;8.578;2023-03-09T12:55:51;13.20;99.90
12089;DHT22;6107;49.078;8.578;2023-03-09T13:00:57;13.20;99.90
12089;DHT22;6107;49.078;8.578;2023-03-09T13:03:30;13.00;99.90
12089;DHT22;6107;49.078;8.578;2023-03-09T13:08:58;12.60;99.90
12089;DHT22;6107;49.078;8.578;2023-03-09T13:14:09;12.70;99.90
12089;DHT22;6107;49.078;8.578;2023-03-09T13:22:11;13.00;99.90
12089;DHT22;6107;49.078;8.578;2023-03-09T13:24:41;13.70;99.90
12089;DHT22;6107;49.078;8.578;2023-03-09T13:29:39;13.70;99.90
12089;DHT22;6107;49.078;8.578;2023-03-09T13:32:23;13.60;99.90
12089;DHT22;6107;49.078;8.578;2023-03-09T13:34:49;13.80;99.90
12089;DHT22;6107;49.078;8.578;2023-03-09T13:37:18;14.20;99.90
12089;DHT22;6107;49.078;8.578;2023-03-09T13:40:05;14.10;99.90
12089;DHT22;6107;49.078;8.578;2023-03-09T13:42:36;14.40;99.90
12089;DHT22;6107;49.078;8.578;2023-03-09T13:45:03;14.30;99.90
12089;DHT22;6107;49.078;8.578;2023-03-09T13:47:31;13.80;99.90
12089;DHT22;6107;49.078;8.578;2023-03-09T13:49:59;13.80;99.90
12089;DHT22;6107;49.078;8.578;2023-03-09T13:52:26;14.00;99.90
12089;DHT22;6107;49.078;8.578;2023-03-09T13:54:59;14.20;99.90
12089;DHT22;6107;49.078;8.578;2023-03-09T14:00:22;14.60;99.90
12089;DHT22;6107;49.078;8.578;2023-03-09T14:02:48;15.00;99.90
12089;DHT22;6107;49.078;8.578;2023-03-09T14:10:40;15.50;99.90
12089;DHT22;6107;49.078;8.578;2023-03-09T14:13:34;15.40;99.90
12089;DHT22;6107;49.078;8.578;2023-03-09T14:16:06;15.10;99.90
12089;DHT22;6107;49.078;8.578;2023-03-09T14:21:02;14.80;99.90
12089;DHT22;6107;49.078;8.578;2023-03-09T14:23:42;15.00;99.90
12089;DHT22;6107;49.078;8.578;2023-03-09T14:26:08;15.50;99.90
12089;DHT22;6107;49.078;8.578;2023-03-09T14:28:39;15.50;99.90
12089;DHT22;6107;49.078;8.578;2023-03-09T14:31:22;15.50;99.90
12089;DHT22;6107;49.078;8.578;2023-03-09T14:36:51;15.30;99.90
12089;DHT22;6107;49.078;8.578;2023-03-09T14:47:30;14.60;99.90
12089;DHT22;6107;49.078;8.578;2023-03-09T14:49:56;14.70;99.90
12089;DHT22;6107;49.078;8.578;2023-03-09T14:52:23;14.60;99.90
12089;DHT22;6107;49.078;8.578;2023-03-09T14:54:49;14.70;99.90
12089;DHT22;6107;49.078;8.578;2023-03-09T14:57:16;14.60;99.90
12089;DHT22;6107;49.078;8.578;2023-03-09T14:59:42;14.60;99.90
12089;DHT22;6107;49.078;8.578;2023-03-09T15:02:11;14.40;99.90
12089;DHT22;6107;49.078;8.578;2023-03-09T15:04:37;14.30;99.90
12089;DHT22;6107;49.078;8.578;2023-03-09T15:07:04;14.20;99.90
12089;DHT22;6107;49.078;8.578;2023-03-09T15:09:31;14.20;99.90
12089;DHT22;6107;49.078;8.578;2023-03-09T15:11:59;14.10;99.90
12089;DHT22;6107;49.078;8.578;2023-03-09T15:14:31;13.80;99.90
12089;DHT22;6107;49.078;8.578;2023-03-09T15:16:57;13.80;99.90
12089;DHT22;6107;49.078;8.578;2023-03-09T15:19:24;13.80;99.90
12089;DHT22;6107;49.078;8.578;2023-03-09T15:21:54;13.90;99.90
12089;DHT22;6107;49.078;8.578;2023-03-09T15:24:21;13.90;99.90
12089;DHT22;6107;49.078;8.578;2023-03-09T15:26:47;13.90;99.90
12089;DHT22;6107;49.078;8.578;2023-03-09T15:29:13;13.90;99.90
12089;DHT22;6107;49.078;8.578;2023-03-09T15:31:38;13.90;99.90
12089;DHT22;6107;49.078;8.578;2023-03-09T15:34:04;14.10;99.90
12089;DHT22;6107;49.078;8.578;2023-03-09T15:36:29;14.50;99.90
12089;DHT22;6107;49.078;8.578;2023-03-09T15:38:55;14.60;99.90
12089;DHT22;6107;49.078;8.578;2023-03-09T15:41:21;14.90;99.90
12089;DHT22;6107;49.078;8.578;2023-03-09T15:43:47;14.70;99.90
12089;DHT22;6107;49.078;8.578;2023-03-09T15:46:12;15.00;99.90
12089;DHT22;6107;49.078;8.578;2023-03-09T15:48:38;15.20;99.90
12089;DHT22;6107;49.078;8.578;2023-03-09T15:51:04;15.40;99.90
12089;DHT22;6107;49.078;8.578;2023-03-09T15:53:30;15.50;99.90
12089;DHT22;6107;49.078;8.578;2023-03-09T15:56:04;15.60;99.90
12089;DHT22;6107;49.078;8.578;2023-03-09T15:58:30;15.40;99.90
12089;DHT22;6107;49.078;8.578;2023-03-09T16:00:58;15.30;99.90
12089;DHT22;6107;49.078;8.578;2023-03-09T16:03:23;15.30;99.90
12089;DHT22;6107;49.078;8.578;2023-03-09T16:05:49;15.20;99.90
12089;DHT22;6107;49.078;8.578;2023-03-09T16:08:14;15.10;99.90
12089;DHT22;6107;49.078;8.578;2023-03-09T16:10:40;15.00;99.90
12089;DHT22;6107;49.078;8.578;2023-03-09T16:13:05;15.20;99.90
12089;DHT22;6107;49.078;8.578;2023-03-09T16:15:31;15.00;99.90
12089;DHT22;6107;49.078;8.578;2023-03-09T16:17:57;14.80;99.90
12089;DHT22;6107;49.078;8.578;2023-03-09T16:20:22;14.70;99.90
12089;DHT22;6107;49.078;8.578;2023-03-09T16:22:48;14.80;99.90
12089;DHT22;6107;49.078;8.578;2023-03-09T16:25:16;14.70;99.90
12089;DHT22;6107;49.078;8.578;2023-03-09T16:27:42;14.70;99.90
12089;DHT22;6107;49.078;8.578;2023-03-09T16:30:11;14.50;99.90
12089;DHT22;6107;49.078;8.578;2023-03-09T16:32:37;14.60;99.90
12089;DHT22;6107;49.078;8.578;2023-03-09T16:35:07;14.60;99.90
12089;DHT22;6107;49.078;8.578;2023-03-09T16:37:34;14.60;99.90
12089;DHT22;6107;49.078;8.578;2023-03-09T16:39:59;14.50;99.90
12089;DHT22;6107;49.078;8.578;2023-03-09T16:42:25;14.50;99.90
12089;DHT22;6107;49.078;8.578;2023-03-09T16:44:51;14.50;99.90
12089;DHT22;6107;49.078;8.578;2023-03-09T16:47:19;14.50;99.90
12089;DHT22;6107;49.078;8.578;2023-03-09T16:49:46;14.40;99.90
12089;DHT22;6107;49.078;8.578;2023-03-09T16:52:12;14.20;99.90
12089;DHT22;6107;49.078;8.578;2023-03-09T16:54:37;14.20;99.90
12089;DHT22;6107;49.078;8.578;2023-03-09T16:57:03;14.10;99.90
12089;DHT22;6107;49.078;8.578;2023-03-09T16:59:29;14.10;99.90
12089;DHT22;6107;49.078;8.578;2023-03-09T17:01:54;14.10;99.90
12089;DHT22;6107;49.078;8.578;2023-03-09T17:04:22;14.00;99.90
12089;DHT22;6107;49.078;8.578;2023-03-09T17:06:47;14.00;99.90
12089;DHT22;6107;49.078;8.578;2023-03-09T17:09:14;14.00;99.90
12089;DHT22;6107;49.078;8.578;2023-03-09T17:14:07;13.80;99.90